• Join FlightAware (Why Join?)
  • Login
  • US Flag 
11:45AM EST


 

Airport Tracker/Info


-or-


 

Live Flight TrackerFlight Track Log ✈ RPA3247 ✈ 28-Apr-2013 ✈ KALB - KDCA

Flight Track Log - Related Links

Times and Time Zones

All times are in EDT time to prevent confusion due to time zone crossing. See the RPA3247 flight status page for this flight to view local times or setup timezone preferences in your user account.

Time Position Orientation Groundspeed Altitude Reporting Facility
EDT Latitude Longitude Course Direction KTS MPH feet Rate Location/Type
05:35PM 42.7319 -73.8053 123° Southeast 156 180 1,100  Level Boston Center
05:36PM 42.7272 -73.8533 262° West 220 253 3,100 2,940 Climbing Boston Center
05:38PM 42.4720 -74.0478 171° South  Level Estimated
05:38PM 42.8006 -73.9739 310° West 234 269 9,700  Level Boston Center
05:39PM 42.4026 -74.1089 170° South  Level Estimated
05:39PM 42.8350 -74.0428 304° West 229 264 12,100  Level Boston Center
05:40PM 42.3580 -74.0146 123° Southeast  Level FlightAware Approximate
05:41PM 42.7653 -74.1256 221° Southwest 237 273 15,200  Level Boston Center
05:42PM 42.6669 -74.1372 185° South 324 373 16,900 1,320 Climbing Boston Center
05:43PM 42.5647 -74.1456 183° South 367 422 17,900 1,500 Climbing Boston Center
05:44PM 42.4608 -74.1342 175° South 376 433 19,900 1,860 Climbing Boston Center
05:45PM 42.3597 -74.0558 150° Southeast 381 438 21,700 1,020 Climbing Boston Center
05:46PM 42.2586 -73.9800 151° Southeast 402 463 22,000 120 Climbing Boston Center
05:47PM 42.1575 -73.8992 149° Southeast 407 468 22,000 1,080 Level Boston Center
05:48PM 42.0606 -73.8242 150° Southeast 407 468 24,200 1,800 Climbing Boston Center
05:50PM 41.8756 -73.8381 183° South 367 422 27,200 1,260 Climbing New York Center
05:51PM 41.7719 -73.8944 202° Southwest 374 430 28,000 360 Climbing New York Center
05:52PM 41.6581 -73.9531 201° Southwest 406 467 28,000  Level New York Center
05:53PM 41.5333 -74.0192 202° Southwest 427 491 28,000  Level New York Center
05:54PM 41.4131 -74.0825 202° Southwest 452 520 28,000  Level New York Center
05:55PM 41.2925 -74.1456 201° Southwest 460 529 28,000  Level New York Center
05:56PM 41.1700 -74.2028 199° South 460 529 28,000  Level New York Center
05:57PM 41.0536 -74.2683 203° Southwest 465 535 28,000  Level New York Center
05:58PM 40.9486 -74.3644 215° Southwest 460 529 28,000  Level New York Center
05:59PM 40.8517 -74.4692 219° Southwest 460 529 28,000  Level New York Center
06:00PM 40.7506 -74.5706 217° Southwest 460 529 28,000 -360 Level New York Center
06:01PM 40.6511 -74.6742 218° Southwest 460 529 27,400 -1,020 Descending New York Center
06:02PM 40.5581 -74.7783 220° Southwest 455 524 26,000 -1,320 Descending New York Center
06:03PM 40.4772 -74.8908 227° Southwest 441 507 24,800 -1,140 Descending New York Center
06:04PM 40.3981 -75.0033 227° Southwest 429 494 23,800 -960 Descending New York Center
06:05PM 40.3211 -75.1131 227° Southwest 424 488 22,900 -900 Descending New York Center
06:06PM 40.2444 -75.2197 227° Southwest 424 488 22,000 -480 Descending New York Center
06:07PM 40.1692 -75.3289 228° Southwest 419 482 22,000  Level New York Center
06:08PM 40.1008 -75.4247 227° Southwest 414 476 22,000  Level New York Center
06:09PM 40.0239 -75.5281 226° Southwest 408 470 22,000  Level New York Center
06:10PM 39.9506 -75.6397 229° Southwest 408 470 22,000  Level New York Center
06:11PM 39.8789 -75.7536 231° Southwest 408 470 22,000  Level New York Center
06:12PM 39.8097 -75.8622 230° Southwest 408 470 22,000 -60 Level New York Center
06:13PM 39.7381 -75.9758 231° Southwest 408 470 21,900 -1,200 Descending New York Center
06:14PM 39.6708 -76.0814 230° Southwest 401 461 19,600 -2,220 Descending New York Center
06:15PM 39.6014 -76.1842 229° Southwest 386 444 17,600 -2,520 Descending New York Center
06:15PM 39.5333 -76.2833 228° Southwest 356 410 14,900 -2,640 Descending Potomac TRACON
06:16PM 39.4667 -76.3833 229° Southwest 350 403 12,600 -1,500 Descending Potomac TRACON
06:17PM 39.4000 -76.4667 224° Southwest 347 399 12,000 -300 Descending Potomac TRACON
06:18PM 39.3167 -76.5333 212° Southwest 329 379 12,000 -360 Level Potomac TRACON
06:19PM 39.2500 -76.6000 218° Southwest 326 375 11,400 -1,020 Descending Potomac TRACON
06:20PM 39.1833 -76.6500 210° Southwest 289 333 10,000 -720 Descending Potomac TRACON
06:21PM 39.1167 -76.7167 218° Southwest 264 304 10,000 -60 Level Potomac TRACON
06:23PM 39.0667 -76.7833 226° Southwest 264 304 9,900 -540 Descending Potomac TRACON
06:24PM 39.0167 -76.8500 226° Southwest 255 293 9,000 -480 Descending Potomac TRACON
06:25PM 38.9667 -76.9000 218° Southwest 195 224 9,000 -960 Level Potomac TRACON
06:26PM 38.9667 -76.9667 270° West 175 201 7,100 -1,440 Descending Potomac TRACON
06:27PM 38.9833 -77.0333 288° West 195 224 6,000 -600 Descending Potomac TRACON
06:28PM 39.0167 -77.0833 311° West 199 229 6,000  Level Potomac TRACON
06:29PM 39.0667 -77.1333 322° Northwest 200 230 6,000 -720 Level Potomac TRACON
06:30PM 39.1000 -77.1833 311° West 198 228 4,600 -1,500 Descending Potomac TRACON
06:31PM 39.0667 -77.2167 218° Southwest 158 182 3,100 -780 Descending Potomac TRACON
06:32PM 39.0167 -77.2333 195° South 160 184 3,000 -60 Descending Potomac TRACON
06:33PM 38.9833 -77.1833 131° Southeast 156 180 3,000 -240 Level Potomac TRACON
06:34PM 38.9667 -77.1500 123° Southeast 155 178 2,600 -600 Descending Potomac TRACON
06:35PM 38.9167 -77.1167 153° Southeast 157 181 1,800 -840 Descending Potomac TRACON